Time;durP1;ratioP1;P1;durP2;ratioP2;P2;SDS_P1;SDS_P2;PMS_P1;PMS_P2;Temp;Humidity;BMP_temperature;BMP_pressure;BME280_temperature;BME280_humidity;BME280_pressure;Samples;Min_cycle;Max_cycle;Signal;HPM_P1;HPM_P2
2023/08/08 00:03:08;;;;;;;3.60;0.70;;;;;;;14.27;100.00;98664.63;272746;1269;23578;-82
2023/08/08 00:09:10;;;;;;;1.40;0.60;;;;;;;14.27;100.00;98673.27;271428;1269;22236;-82
2023/08/08 00:15:12;;;;;;;1.00;0.70;;;;;;;14.28;100.00;98672.71;272011;1263;22476;-83
2023/08/08 00:21:13;;;;;;;1.50;0.90;;;;;;;14.26;100.00;98678.72;271989;1269;22941;-82
2023/08/08 00:27:15;;;;;;;3.50;1.20;;;;;;;14.24;100.00;98679.98;271914;1259;22498;-81
2023/08/08 00:33:17;;;;;;;1.70;0.80;;;;;;;14.23;100.00;98680.30;271252;1269;22572;-82
2023/08/08 00:39:18;;;;;;;5.10;1.10;;;;;;;14.20;100.00;98689.27;271281;1270;104308;-81
2023/08/08 00:45:20;;;;;;;2.60;1.00;;;;;;;14.17;100.00;98692.44;271304;1259;22324;-82
2023/08/08 00:51:24;;;;;;;5.90;1.10;;;;;;;14.17;100.00;98696.36;272776;1270;22226;-82
2023/08/08 00:57:25;;;;;;;4.20;1.30;;;;;;;14.15;100.00;98706.37;272517;1262;22490;-82
2023/08/08 01:03:29;;;;;;;3.00;1.10;;;;;;;14.12;100.00;98714.33;272947;1264;22410;-81
2023/08/08 01:09:37;;;;;;;5.50;1.10;;;;;;;14.10;100.00;98723.55;272031;1270;22211;-82
2023/08/08 01:15:39;;;;;;;5.00;0.90;;;;;;;14.07;100.00;98728.62;273071;1270;22222;-81
2023/08/08 01:21:43;;;;;;;2.60;1.10;;;;;;;14.04;100.00;98727.61;272979;1259;22352;-82
2023/08/08 01:27:45;;;;;;;3.60;0.90;;;;;;;14.03;100.00;98730.14;270857;1267;22581;-81
2023/08/08 01:33:46;;;;;;;2.50;1.30;;;;;;;14.02;100.00;98734.15;271847;1257;22596;-81
2023/08/08 01:39:48;;;;;;;2.70;1.00;;;;;;;13.99;100.00;98732.29;271497;1269;24167;-81
2023/08/08 01:45:51;;;;;;;4.30;1.40;;;;;;;13.94;100.00;98730.20;270902;1265;23039;-81
2023/08/08 01:51:53;;;;;;;6.00;2.50;;;;;;;13.88;100.00;98731.58;270397;1259;24227;-82
2023/08/08 01:57:55;;;;;;;10.40;3.10;;;;;;;13.85;100.00;98737.17;270426;1269;22379;-82
2023/08/08 02:03:56;;;;;;;10.30;3.00;;;;;;;13.83;100.00;98734.43;271222;1269;22357;-82
2023/08/08 02:09:58;;;;;;;6.00;2.40;;;;;;;13.76;100.00;98737.06;273146;1269;22449;-82
2023/08/08 02:16:00;;;;;;;4.60;2.00;;;;;;;13.71;100.00;98741.27;273090;1269;22380;-82
2023/08/08 02:22:02;;;;;;;6.50;1.90;;;;;;;13.64;100.00;98746.16;273140;1259;22359;-82
2023/08/08 02:28:03;;;;;;;4.00;1.10;;;;;;;13.56;100.00;98753.05;271093;1259;22408;-83
2023/08/08 02:34:05;;;;;;;4.90;1.70;;;;;;;13.57;100.00;98755.24;270360;1268;22315;-81
2023/08/08 02:40:07;;;;;;;2.90;1.30;;;;;;;13.56;100.00;98757.68;270575;1269;22652;-82
2023/08/08 02:46:09;;;;;;;2.80;0.90;;;;;;;13.47;100.00;98761.02;270007;1260;23308;-82
2023/08/08 02:52:11;;;;;;;3.70;1.10;;;;;;;13.36;100.00;98764.61;270394;1262;23298;-82
2023/08/08 02:58:13;;;;;;;4.90;1.80;;;;;;;13.29;100.00;98772.02;271549;1269;22309;-82
2023/08/08 03:04:15;;;;;;;2.20;1.10;;;;;;;13.22;100.00;98778.32;273331;1269;22375;-82
2023/08/08 03:10:17;;;;;;;3.90;1.30;;;;;;;13.17;100.00;98786.26;273147;1260;22455;-82
2023/08/08 03:16:19;;;;;;;2.70;1.20;;;;;;;13.09;100.00;98789.96;273361;1269;22402;-83
2023/08/08 03:22:20;;;;;;;6.60;1.60;;;;;;;13.02;100.00;98793.44;271967;1269;22297;-82
2023/08/08 03:28:22;;;;;;;6.20;1.10;;;;;;;12.99;100.00;98795.54;271797;1259;22573;-82
2023/08/08 03:34:28;;;;;;;4.10;1.20;;;;;;;12.95;100.00;98806.98;270653;1269;24398;-82
2023/08/08 03:40:31;;;;;;;3.20;1.20;;;;;;;12.91;100.00;98812.27;270888;1269;22450;-83
2023/08/08 03:46:33;;;;;;;3.50;1.00;;;;;;;12.91;100.00;98820.73;270268;1269;22412;-82
2023/08/08 03:52:37;;;;;;;2.60;1.30;;;;;;;12.91;100.00;98823.65;269784;1269;22557;-83
2023/08/08 03:58:39;;;;;;;3.70;1.70;;;;;;;12.91;100.00;98834.09;270289;1269;22536;-83
2023/08/08 04:04:41;;;;;;;2.30;1.20;;;;;;;12.91;100.00;98837.61;269735;1260;22537;-82
2023/08/08 04:10:43;;;;;;;4.20;1.80;;;;;;;12.97;100.00;98842.17;270471;1259;22535;-82
2023/08/08 04:16:45;;;;;;;6.80;2.00;;;;;;;13.07;100.00;98851.38;269664;1269;23852;-81
2023/08/08 04:22:46;;;;;;;8.20;2.10;;;;;;;13.14;100.00;98866.05;270879;1262;22404;-82
2023/08/08 04:28:49;;;;;;;5.30;1.70;;;;;;;13.16;100.00;98880.65;272262;1260;23399;-82
2023/08/08 04:34:50;;;;;;;7.40;2.10;;;;;;;13.19;100.00;98884.02;271998;1259;25582;-81
2023/08/08 04:40:52;;;;;;;5.00;1.40;;;;;;;13.26;100.00;98887.88;270145;1254;23500;-81
2023/08/08 04:46:53;;;;;;;4.00;1.40;;;;;;;13.32;100.00;98893.66;269824;1257;22563;-82
2023/08/08 04:52:55;;;;;;;3.80;1.10;;;;;;;13.48;100.00;98906.36;270126;1266;23362;-81
2023/08/08 04:58:57;;;;;;;3.40;2.60;;;;;;;13.62;100.00;98912.54;269935;1260;22737;-81
2023/08/08 05:04:59;;;;;;;3.20;1.30;;;;;;;13.74;100.00;98913.77;271588;1264;22453;-82
2023/08/08 05:11:00;;;;;;;2.90;1.20;;;;;;;13.81;100.00;98913.59;272784;1260;23131;-82
2023/08/08 05:17:02;;;;;;;5.20;1.90;;;;;;;13.89;100.00;98919.93;270307;1260;22563;-81
2023/08/08 05:23:04;;;;;;;2.20;1.10;;;;;;;13.96;100.00;98932.88;270602;1268;22562;-82
2023/08/08 05:29:05;;;;;;;2.00;1.40;;;;;;;14.01;100.00;98941.28;270434;1256;22556;-81
2023/08/08 05:35:07;;;;;;;3.70;1.30;;;;;;;14.07;100.00;98941.48;272987;1269;22215;-82
2023/08/08 05:41:09;;;;;;;2.80;1.40;;;;;;;14.13;100.00;98943.99;273288;1267;22225;-82
2023/08/08 05:47:11;;;;;;;5.90;2.80;;;;;;;14.16;100.00;98945.86;273177;1260;22364;-82
2023/08/08 05:53:12;;;;;;;4.90;1.90;;;;;;;14.17;100.00;98949.56;271745;1269;22539;-82
2023/08/08 05:59:14;;;;;;;4.80;2.70;;;;;;;14.22;100.00;98953.09;271733;1269;22438;-82
2023/08/08 06:05:21;;;;;;;5.80;2.20;;;;;;;14.36;100.00;98958.86;271373;1265;26637;-82
2023/08/08 06:11:23;;;;;;;4.90;2.10;;;;;;;14.45;100.00;98962.20;272416;1269;24636;-82
2023/08/08 06:17:25;;;;;;;4.30;1.90;;;;;;;14.51;100.00;98954.14;270843;1269;22506;-82
2023/08/08 06:23:27;;;;;;;5.60;1.70;;;;;;;14.64;100.00;98947.38;270531;1269;25348;-82
2023/08/08 06:29:30;;;;;;;2.80;1.70;;;;;;;14.93;100.00;98947.11;272601;1260;22402;-80
2023/08/08 06:35:32;;;;;;;3.60;1.40;;;;;;;15.22;100.00;98950.82;272567;1256;22546;-81
2023/08/08 06:41:33;;;;;;;5.00;1.60;;;;;;;15.33;100.00;98954.21;271419;1264;23294;-82
2023/08/08 06:47:35;;;;;;;5.40;1.70;;;;;;;15.47;100.00;98952.36;271986;1269;22877;-82
2023/08/08 06:53:40;;;;;;;3.40;1.60;;;;;;;15.67;100.00;98951.23;270699;1264;22480;-82
2023/08/08 06:59:42;;;;;;;2.90;1.60;;;;;;;15.88;100.00;98948.88;270272;1260;23339;-82
2023/08/08 07:05:44;;;;;;;3.20;1.40;;;;;;;15.99;100.00;98944.44;271002;1269;22488;-82
2023/08/08 07:11:46;;;;;;;2.50;1.30;;;;;;;16.08;100.00;98943.38;270422;1266;25472;-81
2023/08/08 07:17:48;;;;;;;5.30;1.20;;;;;;;16.14;100.00;98938.64;270586;1254;22654;-81
2023/08/08 07:23:50;;;;;;;3.30;1.20;;;;;;;16.27;100.00;98943.46;270289;1266;23758;-81
2023/08/08 07:29:52;;;;;;;4.80;1.90;;;;;;;16.39;100.00;98943.46;271070;1262;25402;-82
2023/08/08 07:35:53;;;;;;;2.60;1.40;;;;;;;16.57;100.00;98937.31;270417;1269;24209;-82
2023/08/08 07:41:55;;;;;;;2.40;1.20;;;;;;;16.83;100.00;98933.55;269914;1267;22538;-81
2023/08/08 07:47:57;;;;;;;2.80;1.30;;;;;;;17.13;100.00;98926.20;270874;1257;22567;-83
2023/08/08 07:53:59;;;;;;;3.10;1.20;;;;;;;17.25;100.00;98925.63;271276;1254;24449;-81
2023/08/08 08:00:09;;;;;;;3.40;1.50;;;;;;;17.53;100.00;98926.65;272658;1260;22258;-82
2023/08/08 08:06:13;;;;;;;2.60;1.20;;;;;;;17.83;99.68;98927.38;273050;1257;22347;-82
2023/08/08 08:12:15;;;;;;;3.70;1.20;;;;;;;17.69;97.95;98927.88;273058;1269;22370;-83
2023/08/08 08:18:17;;;;;;;1.80;1.10;;;;;;;17.51;97.92;98933.11;273187;1269;22348;-82
2023/08/08 08:24:20;;;;;;;2.40;1.00;;;;;;;17.54;96.33;98924.60;271306;1269;22671;-81
2023/08/08 08:30:24;;;;;;;5.30;1.60;;;;;;;17.49;94.94;98926.43;270763;1269;24330;-82
2023/08/08 08:36:26;;;;;;;3.60;1.20;;;;;;;17.73;94.77;98927.66;271793;1269;22383;-84
2023/08/08 08:42:28;;;;;;;2.90;1.50;;;;;;;17.78;92.97;98930.23;270590;1269;22350;-82
2023/08/08 08:48:31;;;;;;;3.20;1.10;;;;;;;17.76;92.34;98933.05;272052;1269;22429;-83
2023/08/08 08:54:33;;;;;;;2.20;1.40;;;;;;;17.74;91.74;98928.97;273227;1257;22156;-83
2023/08/08 09:00:35;;;;;;;3.50;1.40;;;;;;;17.72;91.34;98927.19;272292;1267;22529;-82
2023/08/08 09:06:38;;;;;;;2.90;1.20;;;;;;;17.80;90.37;98928.31;270134;1260;25093;-83
2023/08/08 09:12:41;;;;;;;3.70;1.20;;;;;;;17.86;89.04;98922.66;270698;1269;22267;-81
2023/08/08 09:18:43;;;;;;;3.50;0.90;;;;;;;18.00;88.70;98923.86;273105;1254;22387;-83
2023/08/08 09:24:46;;;;;;;3.10;1.00;;;;;;;17.97;87.75;98924.95;272034;1269;22452;-83
2023/08/08 09:30:48;;;;;;;1.80;1.00;;;;;;;17.83;86.41;98929.83;272043;1269;22195;-84
2023/08/08 09:36:52;;;;;;;3.40;1.00;;;;;;;17.90;86.49;98931.66;272813;1257;22508;-83
2023/08/08 09:42:59;;;;;;;3.00;1.10;;;;;;;17.89;86.09;98929.40;273254;1269;23496;-84
2023/08/08 09:49:01;;;;;;;4.40;1.20;;;;;;;17.93;85.25;98922.67;273232;1269;22184;-81
2023/08/08 09:55:04;;;;;;;1.70;1.00;;;;;;;17.96;84.81;98918.89;271805;1269;23296;-82
2023/08/08 10:01:07;;;;;;;1.80;1.00;;;;;;;18.02;84.04;98911.58;272294;1267;22556;-83
2023/08/08 10:07:08;;;;;;;3.70;1.20;;;;;;;18.35;84.04;98904.23;273070;1269;22362;-83
2023/08/08 10:13:18;;;;;;;3.80;1.50;;;;;;;19.02;83.40;98905.48;272972;1259;22184;-84
2023/08/08 10:19:22;;;;;;;3.30;0.90;;;;;;;19.52;82.10;98907.36;272351;1260;22645;-82
2023/08/08 10:25:28;;;;;;;3.30;1.00;;;;;;;19.22;80.25;98905.02;272724;1269;22472;-83
2023/08/08 10:31:34;;;;;;;1.60;0.80;;;;;;;18.90;79.67;98899.99;272547;1256;23207;-83
2023/08/08 10:37:37;;;;;;;2.20;1.10;;;;;;;18.79;80.28;98898.66;271111;1259;22210;-84
2023/08/08 10:50:48;;;;;;;5.00;1.40;;;;;;;18.56;80.05;98896.12;271198;1269;22563;-85
2023/08/08 10:56:52;;;;;;;4.30;1.70;;;;;;;18.64;79.69;98894.33;270137;1264;22215;-83
2023/08/08 11:02:55;;;;;;;4.50;1.60;;;;;;;18.74;79.49;98898.23;270263;1257;22569;-83
2023/08/08 11:08:57;;;;;;;2.90;1.30;;;;;;;18.74;80.04;98896.58;271284;1269;22430;-84
2023/08/08 11:15:00;;;;;;;1.90;1.10;;;;;;;18.65;80.09;98899.23;271320;1264;22544;-82
2023/08/08 11:21:10;;;;;;;2.90;1.10;;;;;;;18.74;79.23;98897.60;270871;1264;22534;-81
2023/08/08 11:28:01;;;;;;;3.20;1.30;;;;;;;18.89;77.74;98893.69;272572;1269;22469;-81
2023/08/08 11:34:04;;;;;;;1.60;1.20;;;;;;;19.37;76.70;98894.89;271921;1269;23900;-82
2023/08/08 11:40:08;;;;;;;4.10;1.00;;;;;;;19.22;74.33;98891.46;273218;1256;22313;-83
2023/08/08 11:46:14;;;;;;;1.50;1.00;;;;;;;18.97;74.36;98893.08;272008;1262;22392;-82
2023/08/08 11:52:25;;;;;;;2.70;1.30;;;;;;;18.65;73.78;98886.55;271457;1269;22551;-81
2023/08/08 11:58:27;;;;;;;3.00;1.50;;;;;;;18.32;74.28;98896.85;271682;1269;22456;-82
2023/08/08 12:04:29;;;;;;;2.10;1.40;;;;;;;17.93;75.43;98913.70;270743;1269;23769;-83
2023/08/08 12:10:31;;;;;;;3.20;1.80;;;;;;;17.44;77.05;98921.20;270122;1262;22556;-82
2023/08/08 12:16:33;;;;;;;3.50;1.70;;;;;;;17.02;79.41;98938.55;271312;1269;22230;-83
2023/08/08 12:22:35;;;;;;;5.60;1.60;;;;;;;16.60;81.08;98956.54;273074;1269;22300;-82
2023/08/08 12:28:36;;;;;;;2.30;1.60;;;;;;;16.19;82.69;98962.58;273158;1257;22465;-83
2023/08/08 12:34:39;;;;;;;1.90;1.40;;;;;;;16.04;84.61;98956.69;271165;1253;22639;-82
2023/08/08 12:40:41;;;;;;;3.80;1.70;;;;;;;16.12;86.24;98946.09;270757;1262;81550;-83
2023/08/08 12:46:43;;;;;;;3.50;1.40;;;;;;;16.35;86.44;98934.05;271994;1265;22559;-82
2023/08/08 12:52:45;;;;;;;4.00;1.40;;;;;;;16.65;86.07;98926.31;271142;1269;24157;-84
2023/08/08 12:58:49;;;;;;;2.90;1.20;;;;;;;16.86;87.27;98922.38;272677;1263;22265;-83
2023/08/08 13:04:51;;;;;;;2.10;1.30;;;;;;;17.00;86.86;98922.08;271904;1269;22322;-83
2023/08/08 13:10:53;;;;;;;4.80;1.30;;;;;;;17.07;85.79;98914.14;272438;1269;25214;-82
2023/08/08 13:16:54;;;;;;;2.00;1.30;;;;;;;17.24;85.82;98919.80;271661;1260;22546;-82
2023/08/08 13:22:56;;;;;;;2.80;1.20;;;;;;;17.26;85.10;98917.52;270780;1257;22626;-83
2023/08/08 13:29:01;;;;;;;6.80;1.60;;;;;;;17.19;85.16;98911.24;270429;1268;22500;-82
2023/08/08 13:35:04;;;;;;;6.60;1.70;;;;;;;17.29;84.95;98906.67;271066;1269;22983;-82
2023/08/08 13:41:06;;;;;;;2.60;1.40;;;;;;;17.42;84.25;98899.64;270494;1269;22637;-82
2023/08/08 13:47:07;;;;;;;10.00;1.30;;;;;;;17.55;83.79;98899.82;272389;1259;22932;-82
2023/08/08 13:53:09;;;;;;;1.90;1.10;;;;;;;17.58;83.00;98903.02;272696;1267;22250;-81
2023/08/08 13:59:12;;;;;;;2.90;1.40;;;;;;;17.47;82.56;98903.91;272531;1269;22199;-82
2023/08/08 14:05:15;;;;;;;2.40;1.30;;;;;;;17.42;81.34;98905.33;271083;1262;22634;-83
2023/08/08 14:11:17;;;;;;;4.50;1.20;;;;;;;17.48;80.98;98913.09;271177;1263;24039;-81
2023/08/08 14:17:19;;;;;;;4.90;1.30;;;;;;;17.52;80.17;98914.44;271445;1269;22372;-83
2023/08/08 14:23:21;;;;;;;3.50;1.50;;;;;;;17.54;79.04;98915.35;271944;1253;22957;-82
2023/08/08 14:29:23;;;;;;;2.90;1.20;;;;;;;17.53;78.61;98919.23;272465;1253;22560;-82
2023/08/08 14:35:24;;;;;;;2.70;0.90;;;;;;;17.59;78.64;98920.88;270640;1268;27726;-83
2023/08/08 14:41:27;;;;;;;3.70;1.40;;;;;;;17.60;78.21;98923.70;270474;1258;22640;-82
2023/08/08 14:47:30;;;;;;;1.70;1.00;;;;;;;17.69;77.92;98922.09;271274;1262;22383;-83
2023/08/08 14:53:31;;;;;;;2.40;1.10;;;;;;;17.86;78.59;98919.25;271797;1259;23783;-82
2023/08/08 14:59:36;;;;;;;3.10;1.30;;;;;;;17.95;78.34;98913.14;271011;1269;25130;-82
2023/08/08 15:05:37;;;;;;;2.50;1.20;;;;;;;18.01;78.15;98914.67;271080;1253;24438;-83
2023/08/08 15:11:56;;;;;;;2.40;1.30;;;;;;;18.05;77.67;98921.57;272535;1259;22651;-83
2023/08/08 15:18:00;;;;;;;5.10;1.10;;;;;;;18.10;76.38;98924.70;271039;1269;22524;-83
2023/08/08 15:24:02;;;;;;;9.90;1.70;;;;;;;18.16;76.53;98922.92;271062;1269;23388;-84
2023/08/08 15:30:05;;;;;;;4.60;1.70;;;;;;;18.23;75.57;98921.98;270692;1269;22544;-82
2023/08/08 15:36:12;;;;;;;3.30;1.30;;;;;;;18.30;75.04;98921.77;270499;1257;22531;-83
2023/08/08 15:42:14;;;;;;;1.60;1.00;;;;;;;18.31;73.81;98926.09;271020;1266;22242;-83
2023/08/08 15:48:16;;;;;;;2.80;1.10;;;;;;;18.27;73.79;98928.16;270317;1258;22640;-82
2023/08/08 15:54:18;;;;;;;1.50;0.90;;;;;;;18.14;73.99;98924.22;270419;1259;22927;-82
2023/08/08 16:00:19;;;;;;;1.80;0.90;;;;;;;17.98;73.90;98924.06;270171;1269;22652;-84
2023/08/08 16:06:23;;;;;;;4.30;2.50;;;;;;;17.85;73.71;98924.64;270378;1259;22572;-83
2023/08/08 16:12:26;;;;;;;3.10;1.70;;;;;;;17.81;73.64;98926.45;270610;1258;22535;-84
2023/08/08 16:18:29;;;;;;;4.50;1.90;;;;;;;17.83;73.91;98921.84;271290;1260;25137;-84
2023/08/08 16:24:30;;;;;;;2.90;1.80;;;;;;;17.82;74.29;98924.86;270116;1269;24475;-83
2023/08/08 16:30:32;;;;;;;6.60;2.10;;;;;;;17.81;74.19;98930.51;271357;1259;22230;-83
2023/08/08 16:36:34;;;;;;;4.80;1.60;;;;;;;17.79;74.28;98938.70;270854;1269;23187;-83
2023/08/08 16:42:36;;;;;;;6.60;1.90;;;;;;;17.77;73.77;98938.80;271827;1269;23166;-83
2023/08/08 16:48:39;;;;;;;3.10;1.40;;;;;;;17.69;73.86;98940.45;272388;1258;22443;-84
2023/08/08 16:54:41;;;;;;;2.50;1.50;;;;;;;17.63;73.97;98936.70;272139;1258;22544;-85
2023/08/08 17:00:42;;;;;;;3.50;1.60;;;;;;;17.55;73.97;98933.58;272373;1259;24105;-84
2023/08/08 17:06:44;;;;;;;3.30;1.50;;;;;;;17.49;74.12;98927.84;272201;1269;23405;-84
2023/08/08 17:12:47;;;;;;;2.00;1.40;;;;;;;17.46;74.02;98926.70;272338;1253;22504;-84
2023/08/08 17:18:49;;;;;;;4.90;1.50;;;;;;;17.40;73.81;98931.55;271687;1269;22539;-84
2023/08/08 17:24:50;;;;;;;2.20;1.60;;;;;;;17.33;75.05;98936.48;270117;1257;23215;-85
2023/08/08 17:30:53;;;;;;;2.70;1.70;;;;;;;17.18;75.36;98941.70;270619;1269;22696;-83
2023/08/08 17:36:55;;;;;;;3.60;2.00;;;;;;;17.05;75.81;98946.56;270977;1254;25500;-84
2023/08/08 17:42:57;;;;;;;4.90;1.70;;;;;;;16.93;75.81;98946.74;271154;1257;23763;-83
2023/08/08 17:48:59;;;;;;;2.80;1.80;;;;;;;16.86;76.10;98946.15;270065;1266;24245;-84
2023/08/08 17:55:01;;;;;;;2.30;1.60;;;;;;;16.75;77.04;98947.02;270213;1269;22511;-82
2023/08/08 18:01:03;;;;;;;3.10;1.60;;;;;;;16.59;78.33;98947.09;270176;1269;22594;-84
2023/08/08 18:07:06;;;;;;;2.70;1.70;;;;;;;16.39;78.67;98953.73;270417;1269;22543;-83
2023/08/08 18:13:10;;;;;;;4.00;2.00;;;;;;;16.20;78.62;98959.02;271278;1259;22855;-84
2023/08/08 18:19:11;;;;;;;6.80;2.40;;;;;;;16.05;78.79;98955.40;272224;1269;22454;-85
2023/08/08 18:25:14;;;;;;;3.20;1.80;;;;;;;15.94;78.91;98961.13;270449;1269;23327;-83
2023/08/08 18:31:17;;;;;;;2.50;1.60;;;;;;;15.84;79.35;98967.08;270569;1269;22432;-84
2023/08/08 18:37:19;;;;;;;4.10;1.90;;;;;;;15.71;80.09;98971.06;271258;1269;23114;-84
2023/08/08 18:43:21;;;;;;;3.50;2.00;;;;;;;15.56;81.49;98970.42;270999;1270;25313;-83
2023/08/08 18:49:23;;;;;;;4.10;2.00;;;;;;;15.35;81.97;98975.70;272106;1270;22248;-84
2023/08/08 18:55:25;;;;;;;4.30;2.20;;;;;;;15.19;82.74;98977.73;271316;1267;22574;-82
2023/08/08 19:01:27;;;;;;;3.10;2.20;;;;;;;15.11;82.39;98970.21;271393;1259;25335;-84
2023/08/08 19:07:30;;;;;;;5.20;2.20;;;;;;;15.12;82.50;98973.75;271246;1259;22439;-83
2023/08/08 19:13:32;;;;;;;5.30;2.40;;;;;;;15.08;82.55;98973.86;271994;1270;22231;-84
2023/08/08 19:19:33;;;;;;;4.50;2.30;;;;;;;15.05;82.87;98973.17;271281;1269;22568;-84
2023/08/08 19:25:35;;;;;;;4.60;2.40;;;;;;;15.03;82.85;98967.68;271688;1264;22298;-84
2023/08/08 19:31:37;;;;;;;4.50;2.40;;;;;;;15.01;82.87;98967.92;271929;1269;22567;-83
2023/08/08 19:37:39;;;;;;;6.10;2.70;;;;;;;14.97;83.29;98970.00;271945;1269;22577;-83
2023/08/08 19:43:41;;;;;;;3.70;2.40;;;;;;;14.88;84.08;98967.30;270416;1269;23979;-84
2023/08/08 19:49:43;;;;;;;5.60;2.40;;;;;;;14.74;84.66;98961.33;270294;1269;22342;-83
2023/08/08 19:55:45;;;;;;;5.20;1.90;;;;;;;14.56;85.28;98962.92;271630;1265;23665;-82
2023/08/08 20:01:46;;;;;;;5.30;2.20;;;;;;;14.46;86.57;98962.04;271356;1268;22548;-83
2023/08/08 20:07:48;;;;;;;6.00;2.10;;;;;;;14.37;87.62;98962.71;270929;1269;22537;-85
2023/08/08 20:13:50;;;;;;;5.20;2.10;;;;;;;14.24;88.38;98954.50;272729;1269;23263;-85
2023/08/08 20:19:51;;;;;;;4.70;2.20;;;;;;;14.08;89.21;98948.41;271702;1269;22530;-84
2023/08/08 20:25:53;;;;;;;5.10;2.50;;;;;;;13.92;89.36;98948.77;271148;1269;23249;-84
2023/08/08 20:31:55;;;;;;;7.40;2.60;;;;;;;13.76;90.11;98948.66;272647;1269;22431;-84
2023/08/08 20:37:57;;;;;;;3.40;2.20;;;;;;;13.56;90.58;98950.91;271390;1266;22575;-84
2023/08/08 20:43:59;;;;;;;3.90;2.10;;;;;;;13.45;91.30;98947.23;270455;1253;24435;-84
2023/08/08 20:50:01;;;;;;;8.10;2.40;;;;;;;13.44;92.66;98943.92;270877;1269;22556;-82
2023/08/08 20:56:02;;;;;;;3.90;2.00;;;;;;;13.39;92.56;98938.59;271469;1269;22216;-84
2023/08/08 21:02:04;;;;;;;7.10;2.40;;;;;;;13.27;92.73;98932.00;273138;1269;22323;-83
2023/08/08 21:08:06;;;;;;;5.40;2.20;;;;;;;13.13;93.48;98930.04;272192;1269;22310;-84
2023/08/08 21:14:07;;;;;;;5.20;2.50;;;;;;;13.01;94.36;98930.42;273133;1269;22453;-84
2023/08/08 21:20:10;;;;;;;3.80;2.00;;;;;;;12.92;95.11;98920.90;273250;1269;22212;-85
2023/08/08 21:26:11;;;;;;;10.80;2.80;;;;;;;12.89;95.75;98922.23;272797;1269;22491;-84
2023/08/08 21:32:13;;;;;;;4.30;1.90;;;;;;;12.93;95.70;98919.17;272309;1269;22639;-84
2023/08/08 21:38:15;;;;;;;4.90;2.40;;;;;;;13.05;95.47;98915.35;271091;1269;22534;-83
2023/08/08 21:44:17;;;;;;;3.00;1.60;;;;;;;13.20;94.74;98911.90;270688;1269;22540;-82
2023/08/08 21:50:19;;;;;;;3.30;1.70;;;;;;;13.50;94.05;98910.68;269666;1269;22578;-83
2023/08/08 21:56:26;;;;;;;2.80;1.70;;;;;;;13.85;93.02;98913.10;270676;1269;22554;-82
2023/08/08 22:02:28;;;;;;;3.90;2.10;;;;;;;14.07;93.07;98923.88;270909;1269;22550;-84
2023/08/08 22:08:30;;;;;;;4.40;1.50;;;;;;;14.15;93.46;98934.48;272992;1269;23738;-84
2023/08/08 22:14:32;;;;;;;2.80;2.10;;;;;;;14.14;93.89;98957.52;272809;1269;22531;-83
2023/08/08 22:20:34;;;;;;;5.70;2.20;;;;;;;14.04;94.50;98995.77;272468;1269;22195;-83
2023/08/08 22:26:36;;;;;;;5.00;2.20;;;;;;;13.96;95.12;99020.80;273399;1269;22421;-83
2023/08/08 22:32:37;;;;;;;7.10;2.10;;;;;;;13.82;96.86;99008.09;273255;1269;23367;-84
2023/08/08 22:38:39;;;;;;;4.70;1.80;;;;;;;13.72;98.21;98991.02;273092;1269;22377;-84
2023/08/08 22:44:41;;;;;;;5.00;2.30;;;;;;;13.63;99.62;99000.95;273331;1269;22679;-84
2023/08/08 22:50:45;;;;;;;4.60;2.60;;;;;;;13.55;99.86;98984.61;272926;1269;22382;-84
2023/08/08 22:56:46;;;;;;;6.60;2.60;;;;;;;13.52;100.00;98974.24;272690;1269;22526;-83
2023/08/08 23:02:48;;;;;;;6.50;3.40;;;;;;;13.48;100.00;98968.75;270573;1269;22585;-84
2023/08/08 23:08:50;;;;;;;10.50;3.50;;;;;;;13.37;100.00;98966.80;270499;1269;22502;-84
2023/08/08 23:14:51;;;;;;;4.80;2.80;;;;;;;13.35;100.00;98998.45;271123;1269;22331;-84
2023/08/08 23:20:53;;;;;;;8.80;4.10;;;;;;;13.34;100.00;99016.36;273262;1269;22267;-84
2023/08/08 23:26:55;;;;;;;4.70;2.20;;;;;;;13.30;100.00;98997.67;270929;1269;22415;-84
2023/08/08 23:40:22;;;;;;;4.50;2.20;;;;;;;13.19;100.00;98959.80;270191;1263;22491;-83
2023/08/08 23:46:24;;;;;;;3.40;2.40;;;;;;;13.16;100.00;98963.89;270108;1269;24200;-84
2023/08/08 23:52:26;;;;;;;2.70;2.10;;;;;;;13.16;100.00;98950.61;270828;1269;23555;-84
2023/08/08 23:58:27;;;;;;;2.60;1.70;;;;;;;13.16;100.00;98939.39;270096;1263;22579;-84
